Inuvik, Canada
Current Conditions -  °F | °C
As of 12:00 AM on Friday 28 Nov 2014 (Local Time) from CYEV Reporting Station
Clear Clear  
Wind Chill: -13°   Ceiling: Unl
Heat Index: -13°   Visibility: 15mi
Dew Point: -18°   Wind: 3mph
Humidity: 77%   Direction: 310°NW
Pressure: 30.25"   Gusts: NA
Location:  68.36°N, 133.73°W
Report Text: CYEV 280700Z 31003KT 15SM SKC M25/M28 A3025 RMK SLP254
Loading
Personal Weather Stations






























Interactive Weather Map New forecast layout! Learn more

10-Day Weather Forecast

Advertisements
Track Severe Weather on mobile